Time;durP1;ratioP1;P1;durP2;ratioP2;P2;SDS_P1;SDS_P2;PMS_P1;PMS_P2;Temp;Humidity;BMP_temperature;BMP_pressure;BME280_temperature;BME280_humidity;BME280_pressure;Samples;Min_cycle;Max_cycle;Signal;HPM_P1;HPM_P2
2023/07/02 00:00:05;;;;;;;10.73;6.45;;;23.30;64.50;;;;;;5056440;28;20040;-54
2023/07/02 00:02:38;;;;;;;10.25;6.35;;;23.30;64.40;;;;;;5074087;28;20107;-57
2023/07/02 00:05:05;;;;;;;10.25;5.85;;;23.20;64.30;;;;;;5073775;28;20029;-57
2023/07/02 00:07:31;;;;;;;9.45;6.35;;;23.30;64.30;;;;;;5073882;28;20037;-54
2023/07/02 00:09:57;;;;;;;9.02;5.68;;;23.30;64.30;;;;;;5073888;28;20024;-55
2023/07/02 00:12:23;;;;;;;9.25;5.72;;;23.30;64.30;;;;;;5074041;28;20020;-55
2023/07/02 00:14:48;;;;;;;9.40;5.90;;;23.30;64.30;;;;;;5073547;28;20039;-56
2023/07/02 00:17:14;;;;;;;9.07;5.80;;;23.30;64.30;;;;;;5073433;28;20391;-55
2023/07/02 00:19:41;;;;;;;8.55;5.80;;;23.30;64.30;;;;;;5073648;28;20033;-56
2023/07/02 00:22:10;;;;;;;9.68;5.68;;;23.30;64.30;;;;;;5073701;28;20602;-55
2023/07/02 00:24:36;;;;;;;10.77;6.03;;;23.30;64.30;;;;;;5073286;28;20063;-56
2023/07/02 00:27:02;;;;;;;8.43;5.60;;;23.30;64.30;;;;;;5073711;28;20025;-56
2023/07/02 00:29:28;;;;;;;9.98;5.68;;;23.30;64.30;;;;;;5073468;28;20509;-56
2023/07/02 00:31:54;;;;;;;10.02;6.15;;;23.30;64.30;;;;;;5073640;28;20021;-56
2023/07/02 00:34:20;;;;;;;9.93;5.70;;;23.30;64.40;;;;;;5071653;28;20039;-57
2023/07/02 00:36:46;;;;;;;9.80;5.65;;;23.30;64.30;;;;;;5073462;28;20027;-56
2023/07/02 00:39:12;;;;;;;9.82;5.60;;;23.30;64.40;;;;;;5073394;28;20119;-56
2023/07/02 00:41:38;;;;;;;8.45;5.28;;;23.30;64.40;;;;;;5072205;28;20108;-56
2023/07/02 00:44:04;;;;;;;8.52;5.38;;;23.30;64.40;;;;;;5073451;28;20028;-56
2023/07/02 00:46:30;;;;;;;8.10;5.25;;;23.30;64.40;;;;;;5073182;28;20025;-54
2023/07/02 00:48:56;;;;;;;10.85;5.80;;;23.30;64.40;;;;;;5073171;28;20071;-56
2023/07/02 00:51:27;;;;;;;7.90;5.25;;;23.30;64.40;;;;;;5072100;28;20052;-53
2023/07/02 00:53:55;;;;;;;9.05;5.18;;;23.30;64.50;;;;;;5073040;28;20032;-55
2023/07/02 00:56:22;;;;;;;7.90;5.30;;;23.30;64.50;;;;;;5073007;28;20039;-55
2023/07/02 00:58:52;;;;;;;8.50;5.57;;;23.30;64.50;;;;;;5073002;28;20024;-56
2023/07/02 01:01:20;;;;;;;8.05;5.05;;;23.30;64.50;;;;;;5073093;28;20460;-55
2023/07/02 01:03:59;;;;;;;8.70;5.30;;;23.30;64.50;;;;;;5072663;28;20024;-57
2023/07/02 01:06:30;;;;;;;9.02;5.32;;;23.30;64.50;;;;;;5072987;28;20090;-56
2023/07/02 01:08:59;;;;;;;8.48;4.90;;;23.30;64.50;;;;;;5072700;28;20031;-56
2023/07/02 01:11:35;;;;;;;8.32;5.05;;;23.20;64.40;;;;;;5072638;28;20046;-55
2023/07/02 01:14:08;;;;;;;8.73;5.07;;;23.20;64.40;;;;;;5072381;28;20035;-56
2023/07/02 01:16:37;;;;;;;7.03;4.68;;;23.20;64.40;;;;;;5072775;28;20095;-56
2023/07/02 01:19:10;;;;;;;7.63;5.10;;;23.20;64.40;;;;;;5072726;28;20404;-50
2023/07/02 01:21:36;;;;;;;7.18;4.75;;;23.30;64.50;;;;;;5072702;28;20028;-56
2023/07/02 01:24:02;;;;;;;8.05;5.32;;;23.20;64.40;;;;;;5070838;28;20032;-56
2023/07/02 01:26:33;;;;;;;7.60;4.97;;;23.20;64.40;;;;;;5071511;28;20027;-55
2023/07/02 01:29:13;;;;;;;8.00;5.20;;;23.30;64.50;;;;;;5071562;28;20033;-56
2023/07/02 01:31:39;;;;;;;8.98;4.88;;;23.30;64.40;;;;;;5071273;28;20031;-56
2023/07/02 01:34:04;;;;;;;10.18;5.45;;;23.20;64.40;;;;;;5070473;28;20024;-55
2023/07/02 01:36:30;;;;;;;9.02;5.13;;;23.20;64.40;;;;;;5072263;28;20411;-56
2023/07/02 01:38:56;;;;;;;7.85;5.10;;;23.20;64.40;;;;;;5072171;28;20032;-50
2023/07/02 01:41:22;;;;;;;8.45;5.00;;;23.20;64.40;;;;;;5072442;28;20032;-54
2023/07/02 01:43:47;;;;;;;7.47;4.72;;;23.20;64.30;;;;;;5071913;28;20036;-51
2023/07/02 01:46:13;;;;;;;8.27;5.07;;;23.30;64.30;;;;;;5072086;28;20523;-55
2023/07/02 01:48:39;;;;;;;8.90;4.90;;;23.20;64.30;;;;;;5072458;28;20032;-57
2023/07/02 01:51:05;;;;;;;7.60;4.50;;;23.30;64.30;;;;;;5072070;28;20020;-57
2023/07/02 01:53:31;;;;;;;7.97;4.68;;;23.30;64.30;;;;;;5071646;28;20021;-55
2023/07/02 01:55:56;;;;;;;6.78;4.63;;;23.30;64.30;;;;;;5071827;28;20529;-56
2023/07/02 01:58:22;;;;;;;6.78;4.53;;;23.20;64.30;;;;;;5072009;28;20035;-56
2023/07/02 02:00:48;;;;;;;8.15;4.95;;;23.20;64.20;;;;;;5070734;28;20036;-56
2023/07/02 02:03:15;;;;;;;6.68;4.50;;;23.30;64.30;;;;;;5070568;28;20500;-53
2023/07/02 02:05:40;;;;;;;10.45;4.63;;;23.20;64.20;;;;;;5071254;28;20050;-52
2023/07/02 02:08:06;;;;;;;7.97;4.85;;;23.20;64.20;;;;;;5071574;28;20442;-56
2023/07/02 02:10:32;;;;;;;7.25;4.65;;;23.20;64.20;;;;;;5071810;28;20024;-56
2023/07/02 02:12:58;;;;;;;8.32;4.57;;;23.30;64.30;;;;;;5070441;28;20073;-56
2023/07/02 02:15:24;;;;;;;7.00;4.40;;;23.20;64.30;;;;;;5071320;28;20028;-52
2023/07/02 02:17:50;;;;;;;6.82;4.93;;;23.20;64.30;;;;;;5071735;28;20024;-56
2023/07/02 02:20:16;;;;;;;8.43;4.60;;;23.20;64.20;;;;;;5071639;28;20557;-55
2023/07/02 02:22:43;;;;;;;7.47;4.45;;;23.20;64.30;;;;;;5071536;28;20408;-53
2023/07/02 02:25:09;;;;;;;8.05;4.75;;;23.20;64.20;;;;;;5070108;28;20028;-52
2023/07/02 02:27:35;;;;;;;6.75;4.65;;;23.20;64.30;;;;;;5071667;28;20048;-56
2023/07/02 02:30:02;;;;;;;7.25;4.20;;;23.20;64.30;;;;;;5070295;28;20082;-55
2023/07/02 02:32:31;;;;;;;7.38;4.65;;;23.20;64.30;;;;;;5070534;28;20159;-56
2023/07/02 02:34:57;;;;;;;6.38;4.18;;;23.20;64.20;;;;;;5070990;28;20021;-56
2023/07/02 02:37:23;;;;;;;6.97;4.38;;;23.20;64.20;;;;;;5070269;28;20478;-56
2023/07/02 02:39:50;;;;;;;5.97;4.15;;;23.20;64.20;;;;;;5072200;28;20081;-56
2023/07/02 02:42:17;;;;;;;8.27;4.85;;;23.20;64.20;;;;;;5076874;28;20025;-56
2023/07/02 02:44:43;;;;;;;7.97;4.60;;;23.20;64.20;;;;;;5076832;28;20546;-56
2023/07/02 02:47:09;;;;;;;6.72;4.22;;;23.20;64.20;;;;;;5078103;28;20028;-56
2023/07/02 02:49:38;;;;;;;7.28;4.47;;;23.20;64.20;;;;;;5076729;28;20043;-56
2023/07/02 02:52:05;;;;;;;7.28;4.30;;;23.20;64.20;;;;;;5077989;28;20035;-56
2023/07/02 02:54:31;;;;;;;8.48;4.25;;;23.20;64.20;;;;;;5077537;28;20025;-56
2023/07/02 02:56:57;;;;;;;7.45;4.30;;;23.20;64.20;;;;;;5076606;28;20028;-56
2023/07/02 02:59:22;;;;;;;7.60;4.82;;;23.20;64.20;;;;;;5076752;28;20033;-56
2023/07/02 03:01:48;;;;;;;6.95;4.30;;;23.20;64.20;;;;;;5076731;28;20046;-56
2023/07/02 03:04:14;;;;;;;6.35;3.83;;;23.20;64.20;;;;;;5076421;28;20039;-56
2023/07/02 03:06:40;;;;;;;7.00;3.90;;;23.20;64.20;;;;;;5078040;28;20028;-55
2023/07/02 03:09:06;;;;;;;7.18;4.35;;;23.20;64.20;;;;;;5077808;28;20442;-56
2023/07/02 03:11:32;;;;;;;6.22;4.03;;;23.20;64.20;;;;;;5077784;28;20613;-56
2023/07/02 03:13:58;;;;;;;6.65;4.18;;;23.20;64.20;;;;;;5076228;28;20025;-56
2023/07/02 03:16:24;;;;;;;7.47;4.70;;;23.20;64.20;;;;;;5076574;28;20573;-56
2023/07/02 03:18:49;;;;;;;5.78;3.97;;;23.20;64.20;;;;;;5077940;28;20067;-54
2023/07/02 03:21:15;;;;;;;6.95;4.30;;;23.20;64.20;;;;;;5077669;28;20507;-55
2023/07/02 03:23:41;;;;;;;7.43;4.50;;;23.20;64.10;;;;;;5076104;28;20075;-57
2023/07/02 03:26:07;;;;;;;7.13;4.05;;;23.20;64.10;;;;;;5077600;28;20028;-56
2023/07/02 03:28:34;;;;;;;5.47;3.92;;;23.20;64.10;;;;;;5077629;28;20039;-55
2023/07/02 03:31:00;;;;;;;6.93;4.38;;;23.20;64.10;;;;;;5077611;28;20395;-53
2023/07/02 03:33:26;;;;;;;6.07;3.85;;;23.20;64.10;;;;;;5077207;28;20032;-56
2023/07/02 03:35:52;;;;;;;6.93;4.03;;;23.20;64.10;;;;;;5077515;28;20040;-56
2023/07/02 03:38:17;;;;;;;5.57;3.53;;;23.20;64.10;;;;;;5077592;28;20029;-56
2023/07/02 03:40:43;;;;;;;5.53;3.75;;;23.20;64.00;;;;;;5077487;28;20029;-56
2023/07/02 03:43:09;;;;;;;5.13;3.67;;;23.20;64.00;;;;;;5077378;28;20024;-55
2023/07/02 03:45:35;;;;;;;6.65;4.10;;;23.20;64.00;;;;;;5077293;28;20126;-56
2023/07/02 03:48:01;;;;;;;6.80;3.95;;;23.20;64.10;;;;;;5077540;28;20043;-56
2023/07/02 03:50:26;;;;;;;6.00;3.80;;;23.20;64.00;;;;;;5077439;28;20032;-55
2023/07/02 03:52:52;;;;;;;6.03;3.63;;;23.20;64.00;;;;;;5072645;28;20035;-56
2023/07/02 03:55:19;;;;;;;5.55;3.53;;;23.20;64.00;;;;;;5073791;28;20032;-56
2023/07/02 03:57:45;;;;;;;6.07;3.78;;;23.20;64.00;;;;;;5074394;28;20059;-56
2023/07/02 04:00:11;;;;;;;5.32;3.30;;;23.20;64.10;;;;;;5074187;28;20056;-56
2023/07/02 04:02:43;;;;;;;5.13;3.45;;;23.20;64.00;;;;;;5074133;28;20060;-55
2023/07/02 04:05:09;;;;;;;6.57;3.85;;;23.20;64.00;;;;;;5081938;22;20084;-43
2023/07/02 04:07:34;;;;;;;7.75;4.15;;;23.20;64.00;;;;;;5033847;28;20450;-43
2023/07/02 04:10:00;;;;;;;5.55;3.70;;;23.20;64.00;;;;;;5034133;28;20108;-43
2023/07/02 04:12:27;;;;;;;7.15;3.67;;;23.20;63.90;;;;;;5034006;28;20060;-44
2023/07/02 04:14:53;;;;;;;5.70;3.55;;;23.20;63.90;;;;;;5038627;28;20036;-47
2023/07/02 04:17:19;;;;;;;6.03;3.78;;;23.20;63.90;;;;;;5053951;28;20033;-43
2023/07/02 04:19:45;;;;;;;6.10;3.65;;;23.20;63.90;;;;;;5053790;28;20104;-45
2023/07/02 04:22:10;;;;;;;5.10;3.35;;;23.20;63.90;;;;;;5053865;28;20431;-43
2023/07/02 04:24:36;;;;;;;5.40;3.67;;;23.20;63.80;;;;;;5035510;28;20066;-43
2023/07/02 04:27:02;;;;;;;5.68;3.53;;;23.20;63.80;;;;;;5053823;28;20616;-43
2023/07/02 04:29:28;;;;;;;6.70;3.85;;;23.20;63.80;;;;;;5053403;28;20025;-43
2023/07/02 04:31:54;;;;;;;7.10;3.95;;;23.20;63.80;;;;;;5053566;28;20481;-43
2023/07/02 04:34:21;;;;;;;6.43;3.97;;;23.20;63.80;;;;;;5052736;28;20037;-43
2023/07/02 04:36:47;;;;;;;6.05;3.63;;;23.20;63.80;;;;;;5053447;28;20036;-43
2023/07/02 04:39:13;;;;;;;6.97;4.00;;;23.20;63.80;;;;;;5053400;28;20082;-43
2023/07/02 04:41:39;;;;;;;6.00;3.58;;;23.20;63.70;;;;;;5053323;28;20037;-43
2023/07/02 04:44:04;;;;;;;6.97;3.75;;;23.20;63.70;;;;;;5052890;28;20117;-44
2023/07/02 04:46:30;;;;;;;6.32;3.80;;;23.20;63.80;;;;;;5053125;28;20484;-43
2023/07/02 04:48:56;;;;;;;5.95;4.00;;;23.20;63.80;;;;;;5053100;28;20033;-46
2023/07/02 04:51:22;;;;;;;5.97;3.88;;;23.20;63.70;;;;;;5053132;28;20021;-43
2023/07/02 04:53:48;;;;;;;6.68;3.97;;;23.20;63.70;;;;;;5052860;28;20044;-43
2023/07/02 04:56:13;;;;;;;6.20;3.67;;;23.20;63.70;;;;;;5052995;28;20096;-43
2023/07/02 04:58:39;;;;;;;5.65;3.75;;;23.20;63.70;;;;;;5053044;28;20037;-44
2023/07/02 05:01:05;;;;;;;7.82;4.20;;;23.20;63.70;;;;;;5052987;28;20028;-43
2023/07/02 05:03:31;;;;;;;6.18;3.90;;;23.20;63.70;;;;;;5051424;28;20036;-43
2023/07/02 05:05:56;;;;;;;6.40;4.20;;;23.20;63.60;;;;;;5052724;28;20041;-43
2023/07/02 05:08:22;;;;;;;7.38;4.03;;;23.20;63.60;;;;;;5052821;28;20036;-45
2023/07/02 05:10:48;;;;;;;8.02;4.22;;;23.20;63.60;;;;;;5052726;28;20406;-43
2023/07/02 05:13:14;;;;;;;7.03;4.18;;;23.20;63.70;;;;;;5052606;28;20513;-43
2023/07/02 05:15:39;;;;;;;6.95;4.32;;;23.20;63.60;;;;;;5052460;28;20060;-43
2023/07/02 05:18:06;;;;;;;6.88;3.85;;;23.20;63.70;;;;;;5052795;28;20028;-43
2023/07/02 05:20:32;;;;;;;6.88;4.28;;;23.20;63.50;;;;;;5052632;28;20029;-43
2023/07/02 05:22:58;;;;;;;7.82;4.22;;;23.20;63.50;;;;;;5052455;28;20036;-43
2023/07/02 05:25:24;;;;;;;7.47;4.40;;;23.20;63.40;;;;;;5052147;28;20043;-45
2023/07/02 05:27:49;;;;;;;7.30;4.63;;;23.20;63.50;;;;;;5052502;28;20025;-46
2023/07/02 05:30:15;;;;;;;9.85;4.85;;;23.20;63.50;;;;;;5052438;28;20025;-44
2023/07/02 05:32:42;;;;;;;8.52;4.72;;;23.20;63.50;;;;;;5052338;28;20017;-44
2023/07/02 05:35:08;;;;;;;8.18;4.88;;;23.20;63.50;;;;;;5051668;28;20484;-44
2023/07/02 05:37:34;;;;;;;7.80;4.53;;;23.20;63.40;;;;;;5052285;28;20029;-44
2023/07/02 05:40:00;;;;;;;8.65;4.93;;;23.20;63.40;;;;;;5052214;28;20511;-44
2023/07/02 05:42:25;;;;;;;7.20;4.80;;;23.20;63.40;;;;;;5052074;28;20100;-44
2023/07/02 05:44:51;;;;;;;9.40;4.95;;;23.20;63.40;;;;;;5051784;28;20028;-44
2023/07/02 05:47:17;;;;;;;8.40;5.05;;;23.20;63.40;;;;;;5052154;28;20021;-46
2023/07/02 05:49:43;;;;;;;9.63;5.05;;;23.20;63.40;;;;;;5052099;28;20033;-44
2023/07/02 05:52:08;;;;;;;9.85;4.97;;;23.20;63.40;;;;;;5052046;28;20103;-44
2023/07/02 05:54:34;;;;;;;7.75;5.00;;;23.20;63.40;;;;;;5051676;28;20029;-44
2023/07/02 05:57:00;;;;;;;8.40;4.60;;;23.20;63.90;;;;;;5051835;28;20553;-44
2023/07/02 05:59:26;;;;;;;7.97;4.50;;;23.20;63.30;;;;;;5051861;28;20041;-44
2023/07/02 06:01:51;;;;;;;9.15;5.30;;;23.20;63.20;;;;;;5051833;28;20151;-44
2023/07/02 06:04:17;;;;;;;8.32;4.93;;;23.20;63.80;;;;;;5051465;28;20082;-44
2023/07/02 06:06:43;;;;;;;9.95;5.18;;;23.20;63.30;;;;;;5051738;28;20106;-48
2023/07/02 06:09:09;;;;;;;8.95;5.20;;;23.20;63.20;;;;;;5051819;28;20029;-46
2023/07/02 06:11:35;;;;;;;8.35;4.97;;;23.20;63.70;;;;;;5051710;28;20025;-44
2023/07/02 06:14:00;;;;;;;9.13;5.30;;;23.20;63.20;;;;;;5033468;28;20028;-44
2023/07/02 06:16:26;;;;;;;8.77;5.07;;;23.20;63.20;;;;;;5051271;28;20028;-44
2023/07/02 06:18:52;;;;;;;8.82;5.53;;;23.20;63.10;;;;;;5051563;28;20106;-44
2023/07/02 06:21:19;;;;;;;9.15;5.55;;;23.20;63.10;;;;;;5051615;28;20039;-44
2023/07/02 06:23:45;;;;;;;10.07;5.35;;;23.20;63.80;;;;;;5051214;28;20029;-46
2023/07/02 06:26:11;;;;;;;8.57;5.22;;;23.20;63.20;;;;;;5051389;28;20090;-44
2023/07/02 06:28:38;;;;;;;8.45;5.45;;;23.20;63.20;;;;;;5051507;28;20492;-44
2023/07/02 06:31:04;;;;;;;8.98;5.32;;;23.20;63.10;;;;;;5051509;28;20090;-45
2023/07/02 06:33:30;;;;;;;8.43;5.38;;;23.20;63.10;;;;;;5051113;28;20029;-44
2023/07/02 06:35:56;;;;;;;7.95;5.30;;;23.20;63.10;;;;;;5050986;28;20096;-45
2023/07/02 06:38:21;;;;;;;10.02;5.53;;;23.20;63.20;;;;;;5051381;28;20146;-45
2023/07/02 06:40:47;;;;;;;7.50;4.78;;;23.20;63.10;;;;;;5051400;28;20021;-44
2023/07/02 06:43:13;;;;;;;9.48;5.13;;;23.20;63.10;;;;;;5051194;28;20083;-44
2023/07/02 06:45:39;;;;;;;10.25;5.63;;;23.20;63.50;;;;;;5051045;28;20045;-44
2023/07/02 06:48:05;;;;;;;10.10;5.53;;;23.20;62.90;;;;;;5051371;28;20420;-44
2023/07/02 06:50:30;;;;;;;9.48;5.45;;;23.20;62.90;;;;;;5051365;28;20505;-44
2023/07/02 06:52:56;;;;;;;9.32;5.22;;;23.20;62.80;;;;;;5051648;28;20029;-44
2023/07/02 06:55:23;;;;;;;7.25;4.72;;;23.20;62.90;;;;;;5050911;28;20057;-45
2023/07/02 06:57:49;;;;;;;9.80;5.70;;;23.20;62.90;;;;;;5051263;28;20040;-44
2023/07/02 07:00:15;;;;;;;8.23;5.38;;;23.20;62.80;;;;;;5051178;28;20029;-44
2023/07/02 07:02:41;;;;;;;8.13;5.43;;;23.20;62.80;;;;;;5051156;28;20025;-44
2023/07/02 07:05:08;;;;;;;9.90;5.70;;;23.20;62.90;;;;;;5050595;28;20037;-49
2023/07/02 07:07:34;;;;;;;10.95;5.53;;;23.20;62.80;;;;;;5050960;28;20056;-44
2023/07/02 07:09:59;;;;;;;10.73;5.53;;;23.20;62.80;;;;;;5051213;28;20064;-44
2023/07/02 07:12:25;;;;;;;8.70;5.30;;;23.20;62.80;;;;;;5051106;28;20029;-45
2023/07/02 07:14:51;;;;;;;8.82;5.40;;;23.20;62.80;;;;;;5050788;28;20044;-44
2023/07/02 07:17:17;;;;;;;8.75;5.13;;;23.20;62.80;;;;;;5051118;28;20029;-44
2023/07/02 07:19:43;;;;;;;9.05;5.32;;;23.20;62.80;;;;;;5050967;28;20056;-44
2023/07/02 07:22:08;;;;;;;9.10;5.43;;;23.20;62.80;;;;;;5051024;28;20028;-47
2023/07/02 07:24:34;;;;;;;10.25;6.22;;;23.20;62.80;;;;;;5050624;28;20021;-44
2023/07/02 07:27:00;;;;;;;9.77;5.57;;;23.20;62.70;;;;;;5052055;28;20041;-46
2023/07/02 07:29:26;;;;;;;9.70;5.10;;;23.20;62.70;;;;;;5054795;28;20078;-44
2023/07/02 07:31:51;;;;;;;9.20;5.53;;;23.20;62.70;;;;;;5054786;28;20029;-44
2023/07/02 07:34:17;;;;;;;10.48;5.57;;;23.20;62.70;;;;;;5036382;28;20423;-44
2023/07/02 07:36:43;;;;;;;10.35;5.88;;;23.20;62.60;;;;;;5054628;28;20029;-44
2023/07/02 07:39:09;;;;;;;8.20;4.72;;;23.20;62.50;;;;;;5054550;28;20028;-49
2023/07/02 07:41:34;;;;;;;10.10;5.43;;;23.20;62.60;;;;;;5054580;28;20078;-46
2023/07/02 07:44:01;;;;;;;9.02;5.28;;;23.20;63.20;;;;;;5054340;28;20638;-44
2023/07/02 07:46:27;;;;;;;8.77;5.60;;;23.20;62.60;;;;;;5054449;28;20025;-44
2023/07/02 07:48:53;;;;;;;8.63;5.50;;;23.20;62.70;;;;;;5054287;28;20163;-44
2023/07/02 07:51:18;;;;;;;8.05;5.20;;;23.20;62.80;;;;;;5054479;28;20075;-45
2023/07/02 07:53:44;;;;;;;9.90;5.95;;;23.20;62.80;;;;;;5054143;28;20023;-47
2023/07/02 07:56:10;;;;;;;9.68;5.35;;;23.20;62.80;;;;;;5056199;28;20025;-44
2023/07/02 07:58:36;;;;;;;10.43;6.18;;;23.20;62.90;;;;;;5054204;28;20078;-44
2023/07/02 08:01:02;;;;;;;10.18;5.47;;;23.20;62.80;;;;;;5054214;28;20500;-45
2023/07/02 08:03:27;;;;;;;11.95;6.38;;;23.20;62.90;;;;;;5053690;28;20091;-44
2023/07/02 08:05:53;;;;;;;9.77;5.75;;;23.20;62.80;;;;;;5053828;28;20087;-44
2023/07/02 08:08:19;;;;;;;11.02;5.93;;;23.20;62.80;;;;;;5053899;28;20071;-44
2023/07/02 08:10:46;;;;;;;9.93;5.32;;;23.20;62.80;;;;;;5054053;28;20534;-46
2023/07/02 08:13:12;;;;;;;11.65;5.97;;;23.20;62.80;;;;;;5053877;28;20029;-44
2023/07/02 08:15:38;;;;;;;9.15;6.00;;;23.20;62.90;;;;;;5053658;28;20373;-44
2023/07/02 08:18:04;;;;;;;9.65;5.65;;;23.20;62.80;;;;;;5053720;28;20037;-45
2023/07/02 08:20:30;;;;;;;8.35;5.47;;;23.20;62.80;;;;;;5054038;28;20064;-44
2023/07/02 08:22:55;;;;;;;8.82;5.40;;;23.20;62.80;;;;;;5053669;28;20464;-44
2023/07/02 08:25:22;;;;;;;9.55;5.75;;;23.20;62.90;;;;;;5053330;28;20037;-44
2023/07/02 08:27:47;;;;;;;9.65;5.72;;;23.20;62.70;;;;;;5053490;28;20107;-44
2023/07/02 08:30:13;;;;;;;7.95;5.30;;;23.20;62.70;;;;;;5053624;28;20124;-44
2023/07/02 08:32:39;;;;;;;9.85;5.68;;;23.20;62.70;;;;;;5053638;28;20029;-46
2023/07/02 08:35:05;;;;;;;9.43;5.55;;;23.20;62.70;;;;;;5052850;28;20025;-44
2023/07/02 08:37:31;;;;;;;9.38;5.68;;;23.10;62.60;;;;;;5053179;28;20417;-44
2023/07/02 08:39:56;;;;;;;11.05;5.57;;;23.10;62.60;;;;;;5053859;28;20112;-44
2023/07/02 08:42:22;;;;;;;10.73;5.93;;;23.10;62.60;;;;;;5053349;28;20021;-45
2023/07/02 08:44:53;;;;;;;11.73;5.47;;;23.20;62.70;;;;;;5052962;28;20048;-45
2023/07/02 08:47:19;;;;;;;10.65;5.90;;;23.20;62.70;;;;;;5053335;28;20025;-43
2023/07/02 08:49:47;;;;;;;8.82;5.53;;;23.20;62.60;;;;;;5053159;28;20028;-44
2023/07/02 08:52:13;;;;;;;8.82;5.20;;;23.20;62.70;;;;;;5053235;28;20476;-47
2023/07/02 08:54:39;;;;;;;8.70;5.32;;;23.20;62.70;;;;;;5052832;28;20031;-45
2023/07/02 08:57:05;;;;;;;9.05;5.68;;;23.20;62.60;;;;;;5053034;28;20029;-49
2023/07/02 08:59:31;;;;;;;10.35;5.72;;;23.10;62.70;;;;;;5053019;28;20143;-44
2023/07/02 09:01:57;;;;;;;9.68;5.97;;;23.20;62.50;;;;;;5053067;28;20033;-45
2023/07/02 09:04:25;;;;;;;7.38;4.93;;;23.10;62.50;;;;;;5034762;28;20035;-45
2023/07/02 09:07:08;;;;;;;10.10;5.93;;;23.20;62.50;;;;;;5053781;28;20059;-50
2023/07/02 09:09:48;;;;;;;9.80;5.50;;;23.20;62.50;;;;;;5053818;28;20032;-49
2023/07/02 09:12:28;;;;;;;9.40;5.60;;;23.10;62.40;;;;;;5052840;28;20032;-44
2023/07/02 09:14:55;;;;;;;7.60;5.32;;;23.20;62.50;;;;;;5052560;28;20033;-44
2023/07/02 09:17:21;;;;;;;9.65;5.38;;;23.20;62.40;;;;;;5052854;28;20040;-44
2023/07/02 09:19:51;;;;;;;10.18;5.93;;;23.20;62.30;;;;;;5052660;28;20029;-44
2023/07/02 09:22:17;;;;;;;10.32;6.10;;;23.20;62.80;;;;;;5052882;28;20488;-52
2023/07/02 09:24:55;;;;;;;11.77;6.03;;;23.20;62.20;;;;;;5052251;28;20025;-48
2023/07/02 09:27:21;;;;;;;9.00;6.03;;;23.20;62.20;;;;;;5052553;28;20131;-51
2023/07/02 09:29:53;;;;;;;11.23;6.43;;;23.20;62.10;;;;;;5052468;28;20037;-48
2023/07/02 09:32:28;;;;;;;8.80;5.55;;;23.20;62.10;;;;;;5052351;28;20036;-51
2023/07/02 09:34:57;;;;;;;9.70;5.70;;;23.20;62.10;;;;;;5051867;28;20029;-48
2023/07/02 09:37:24;;;;;;;9.57;6.23;;;23.20;62.20;;;;;;5052429;28;20515;-50
2023/07/02 09:39:52;;;;;;;10.02;5.60;;;23.20;62.00;;;;;;5052324;28;20407;-52
2023/07/02 09:42:19;;;;;;;13.02;6.10;;;23.20;62.00;;;;;;5052207;28;20035;-50
2023/07/02 09:44:46;;;;;;;8.13;5.45;;;23.20;61.90;;;;;;5051864;28;20071;-52
2023/07/02 09:47:13;;;;;;;9.63;5.80;;;23.20;61.80;;;;;;5052148;28;20109;-50
2023/07/02 09:49:41;;;;;;;11.38;6.30;;;23.20;61.90;;;;;;5033509;28;20504;-50
2023/07/02 09:52:09;;;;;;;9.07;5.85;;;23.20;61.70;;;;;;5052085;28;20028;-50
2023/07/02 09:54:36;;;;;;;8.93;5.32;;;23.20;61.60;;;;;;5051686;28;20043;-52
2023/07/02 09:57:02;;;;;;;9.65;5.90;;;23.20;61.70;;;;;;5051852;28;20087;-52
2023/07/02 09:59:29;;;;;;;9.35;5.90;;;23.20;61.60;;;;;;5051879;28;20071;-49
2023/07/02 10:01:56;;;;;;;9.45;5.80;;;23.20;61.50;;;;;;5052052;28;20052;-52
2023/07/02 10:04:25;;;;;;;9.98;5.43;;;23.20;61.50;;;;;;5051385;28;20447;-52
2023/07/02 10:06:56;;;;;;;10.05;5.75;;;23.20;61.40;;;;;;5056439;22;20049;-42
2023/07/02 10:09:43;;;;;;;9.48;5.78;;;23.20;61.40;;;;;;5024259;28;20464;-43
2023/07/02 10:12:21;;;;;;;10.95;5.95;;;23.20;61.40;;;;;;5031978;28;20075;-42
2023/07/02 10:14:50;;;;;;;10.73;5.60;;;23.20;61.30;;;;;;5030341;28;20496;-42
2023/07/02 10:17:30;;;;;;;11.38;6.40;;;23.20;61.30;;;;;;5012128;28;20025;-42
2023/07/02 10:19:58;;;;;;;11.48;6.50;;;23.30;61.30;;;;;;5012146;28;20510;-43
2023/07/02 10:22:24;;;;;;;11.85;6.20;;;23.30;61.40;;;;;;5012094;28;20521;-44
2023/07/02 10:24:56;;;;;;;11.35;6.40;;;23.20;61.30;;;;;;5012023;28;20038;-43
2023/07/02 10:27:34;;;;;;;10.82;6.10;;;23.30;61.40;;;;;;5012161;28;20037;-45
2023/07/02 10:30:00;;;;;;;11.50;6.32;;;23.30;61.40;;;;;;5012060;28;20414;-45
2023/07/02 10:32:30;;;;;;;10.82;6.13;;;23.30;61.50;;;;;;5012078;28;20021;-49
2023/07/02 10:34:58;;;;;;;11.23;6.13;;;23.30;61.50;;;;;;5011672;28;20030;-51
2023/07/02 10:37:24;;;;;;;11.07;6.07;;;23.20;61.50;;;;;;5012039;28;20052;-45
2023/07/02 10:39:51;;;;;;;11.48;6.50;;;23.30;61.60;;;;;;5011875;28;20052;-50
2023/07/02 10:42:17;;;;;;;11.35;6.70;;;23.20;61.50;;;;;;4994321;28;20033;-45
2023/07/02 10:44:53;;;;;;;11.40;5.90;;;23.20;61.50;;;;;;5011394;28;20022;-44
2023/07/02 10:47:19;;;;;;;10.93;6.60;;;23.20;61.40;;;;;;5011994;28;20033;-42
2023/07/02 10:49:45;;;;;;;11.38;6.60;;;23.20;61.40;;;;;;5011712;28;20409;-42
2023/07/02 10:52:11;;;;;;;11.90;6.45;;;23.20;61.50;;;;;;5011942;28;20037;-42
2023/07/02 10:54:41;;;;;;;10.30;6.22;;;23.20;61.40;;;;;;5011415;28;20030;-44
2023/07/02 10:57:08;;;;;;;11.18;6.63;;;23.30;61.50;;;;;;5012223;28;20030;-42
2023/07/02 10:59:34;;;;;;;11.65;5.97;;;23.20;61.40;;;;;;5011732;28;20032;-42
2023/07/02 11:02:03;;;;;;;12.00;6.45;;;23.20;61.40;;;;;;5014800;28;20033;-42
2023/07/02 11:04:29;;;;;;;11.10;6.45;;;23.20;61.30;;;;;;5015300;28;20037;-46
2023/07/02 11:06:55;;;;;;;10.60;5.88;;;23.20;61.40;;;;;;5015406;28;20030;-42
2023/07/02 11:09:22;;;;;;;14.43;6.43;;;23.20;61.40;;;;;;5015324;28;20523;-43
2023/07/02 11:11:58;;;;;;;12.02;6.45;;;23.20;61.50;;;;;;5015696;28;20022;-42
2023/07/02 11:14:34;;;;;;;11.05;6.97;;;23.20;61.50;;;;;;5015119;28;20450;-42
2023/07/02 11:17:05;;;;;;;10.93;6.65;;;23.20;61.40;;;;;;5015249;28;20532;-42
2023/07/02 11:19:32;;;;;;;13.85;6.93;;;23.20;61.50;;;;;;5015376;28;20080;-42
2023/07/02 11:21:58;;;;;;;11.32;6.30;;;23.20;61.40;;;;;;5015603;28;20030;-45
2023/07/02 11:24:33;;;;;;;10.55;5.80;;;23.20;62.00;;;;;;5014836;28;20037;-42
2023/07/02 11:27:00;;;;;;;11.18;6.22;;;23.20;61.50;;;;;;4997459;28;20029;-43
2023/07/02 11:29:28;;;;;;;11.35;6.00;;;23.20;61.40;;;;;;5015083;28;20114;-44
2023/07/02 11:31:53;;;;;;;11.68;6.57;;;23.20;61.40;;;;;;4997706;28;20029;-44
2023/07/02 11:34:21;;;;;;;12.25;6.60;;;23.20;61.40;;;;;;5014499;28;20036;-46
2023/07/02 11:36:48;;;;;;;11.65;6.10;;;23.20;61.40;;;;;;5014843;28;20113;-43
2023/07/02 11:39:15;;;;;;;10.52;6.15;;;23.20;61.40;;;;;;5014825;28;20486;-44
2023/07/02 11:41:43;;;;;;;12.02;6.57;;;23.20;61.50;;;;;;5014871;28;20034;-43
2023/07/02 11:44:09;;;;;;;11.35;6.32;;;23.20;61.40;;;;;;5014540;28;20056;-43
2023/07/02 11:46:35;;;;;;;11.13;6.25;;;23.20;61.30;;;;;;5014646;28;20083;-42
2023/07/02 11:49:02;;;;;;;11.25;6.72;;;23.20;61.30;;;;;;5014852;28;20405;-45
2023/07/02 11:51:28;;;;;;;12.20;6.57;;;23.20;61.30;;;;;;5014695;28;20030;-43
2023/07/02 11:53:54;;;;;;;13.35;6.95;;;23.20;61.10;;;;;;5014465;28;20034;-43
2023/07/02 11:56:20;;;;;;;12.48;6.70;;;23.20;61.10;;;;;;5014641;28;20385;-44
2023/07/02 11:58:45;;;;;;;15.02;7.13;;;23.20;61.10;;;;;;5014740;28;20330;-42
2023/07/02 12:01:11;;;;;;;12.27;7.25;;;23.20;61.10;;;;;;5014543;28;20112;-42
2023/07/02 12:03:37;;;;;;;12.00;7.05;;;23.20;61.10;;;;;;5014222;28;20486;-46
2023/07/02 12:06:03;;;;;;;13.40;7.38;;;23.20;60.90;;;;;;5014280;28;20038;-45
2023/07/02 12:08:29;;;;;;;14.88;8.10;;;23.20;61.00;;;;;;5014370;28;20057;-42
2023/07/02 12:10:55;;;;;;;13.43;7.13;;;23.20;61.10;;;;;;5014658;28;20460;-43
2023/07/02 12:13:20;;;;;;;15.18;7.72;;;23.30;61.00;;;;;;5013450;28;20034;-43
2023/07/02 12:15:47;;;;;;;12.48;7.85;;;23.20;61.00;;;;;;5014754;28;20440;-43
2023/07/02 12:18:13;;;;;;;13.63;7.43;;;23.20;60.80;;;;;;5014130;28;20103;-43
2023/07/02 12:20:40;;;;;;;14.32;8.13;;;23.20;60.80;;;;;;4996747;28;20121;-43
2023/07/02 12:23:06;;;;;;;13.68;7.90;;;23.20;60.80;;;;;;5014433;28;20026;-42
2023/07/02 12:25:32;;;;;;;12.52;7.80;;;23.20;60.80;;;;;;5013807;28;20034;-44
2023/07/02 12:27:58;;;;;;;13.40;8.05;;;23.20;60.70;;;;;;5014384;28;20390;-44
2023/07/02 12:30:23;;;;;;;14.90;8.43;;;23.20;60.70;;;;;;4996347;28;20026;-44
2023/07/02 12:32:49;;;;;;;13.35;7.30;;;23.20;60.50;;;;;;5014083;28;20026;-45
2023/07/02 12:35:15;;;;;;;12.93;7.18;;;23.20;60.50;;;;;;5014432;28;20486;-46
2023/07/02 12:37:51;;;;;;;15.05;7.95;;;23.20;60.50;;;;;;5014402;28;20030;-49
2023/07/02 12:40:18;;;;;;;13.88;8.15;;;23.20;60.50;;;;;;5013790;28;20080;-48